Time;durP1;ratioP1;P1;durP2;ratioP2;P2;SDS_P1;SDS_P2;PMS_P1;PMS_P2;Temp;Humidity;BMP_temperature;BMP_pressure;BME280_temperature;BME280_humidity;BME280_pressure;Samples;Min_cycle;Max_cycle;Signal;HPM_P1;HPM_P2
2022/03/04 00:00:04;;;;;;;21.20;13.57;;;;;;;;;;5014992;28;20214;-84
2022/03/04 00:02:31;;;;;;;20.77;13.37;;;;;;;;;;5012619;28;20228;-84
2022/03/04 00:04:59;;;;;;;21.93;13.43;;;;;;;;;;5012916;28;20591;-83
2022/03/04 00:07:27;;;;;;;21.07;14.03;;;;;;;;;;5012648;28;20739;-83
2022/03/04 00:09:54;;;;;;;20.90;13.40;;;;;;;;;;5013146;28;20200;-84
2022/03/04 00:12:21;;;;;;;21.87;13.43;;;;;;;;;;5013647;28;20239;-85
2022/03/04 00:14:48;;;;;;;21.13;13.03;;;;;;;;;;5013367;28;20204;-83
2022/03/04 00:17:15;;;;;;;18.63;12.77;;;;;;;;;;5012586;28;20240;-84
2022/03/04 00:19:42;;;;;;;24.03;13.17;;;;;;;;;;5013143;28;20225;-83
2022/03/04 00:22:10;;;;;;;18.70;12.47;;;;;;;;;;5012350;28;20236;-83
2022/03/04 00:24:37;;;;;;;20.07;13.40;;;;;;;;;;5012872;28;20216;-83
2022/03/04 00:27:05;;;;;;;18.07;12.77;;;;;;;;;;5012831;28;20269;-83
2022/03/04 00:29:32;;;;;;;19.77;13.13;;;;;;;;;;5021790;28;20197;-83
2022/03/04 00:31:59;;;;;;;19.13;13.10;;;;;;;;;;5014234;28;20631;-83
2022/03/04 00:34:26;;;;;;;17.13;12.13;;;;;;;;;;5013708;28;20590;-83
2022/03/04 00:36:53;;;;;;;20.13;12.37;;;;;;;;;;5012495;28;20263;-83
2022/03/04 00:39:23;;;;;;;18.93;12.10;;;;;;;;;;5013342;28;20212;-84
2022/03/04 00:41:50;;;;;;;19.00;12.40;;;;;;;;;;5012916;28;20287;-83
2022/03/04 00:44:17;;;;;;;18.80;11.53;;;;;;;;;;5018627;28;20205;-83
2022/03/04 00:46:44;;;;;;;16.20;11.63;;;;;;;;;;5020269;28;20235;-83
2022/03/04 00:49:11;;;;;;;19.33;11.50;;;;;;;;;;5015919;28;20208;-83
2022/03/04 00:51:38;;;;;;;15.50;10.80;;;;;;;;;;5016776;28;20227;-83
2022/03/04 00:54:06;;;;;;;18.47;10.70;;;;;;;;;;5017261;28;20298;-83
2022/03/04 00:56:34;;;;;;;16.87;10.90;;;;;;;;;;5016603;28;20996;-84
2022/03/04 00:59:01;;;;;;;17.00;10.50;;;;;;;;;;5017840;28;20224;-83
2022/03/04 01:01:28;;;;;;;13.20;9.70;;;;;;;;;;5019845;28;20716;-85
2022/03/04 01:03:55;;;;;;;17.93;10.33;;;;;;;;;;5016657;28;20200;-83
2022/03/04 01:06:22;;;;;;;13.67;10.23;;;;;;;;;;5015910;28;20239;-83
2022/03/04 01:08:50;;;;;;;14.63;10.30;;;;;;;;;;5016296;28;20227;-83
2022/03/04 01:11:17;;;;;;;16.77;10.87;;;;;;;;;;5015948;28;20239;-83
2022/03/04 01:13:45;;;;;;;15.77;10.20;;;;;;;;;;5016397;28;20209;-81
2022/03/04 01:16:12;;;;;;;15.63;10.57;;;;;;;;;;5015858;28;20690;-83
2022/03/04 01:18:39;;;;;;;15.60;10.33;;;;;;;;;;5016722;28;20246;-83
2022/03/04 01:21:06;;;;;;;13.27;9.90;;;;;;;;;;5015651;28;20605;-83
2022/03/04 01:23:34;;;;;;;16.77;10.67;;;;;;;;;;5026029;28;20208;-82
2022/03/04 01:26:02;;;;;;;16.97;9.23;;;;;;;;;;5031602;28;20263;-83
2022/03/04 01:28:29;;;;;;;15.10;9.93;;;;;;;;;;5032307;28;20242;-83
2022/03/04 01:30:58;;;;;;;14.33;10.23;;;;;;;;;;5031765;28;20625;-82
2022/03/04 01:33:25;;;;;;;13.77;9.63;;;;;;;;;;5020863;28;20200;-83
2022/03/04 01:35:52;;;;;;;18.20;9.80;;;;;;;;;;5021584;28;20239;-83
2022/03/04 01:38:19;;;;;;;17.00;10.60;;;;;;;;;;5020060;28;20227;-82
2022/03/04 01:40:46;;;;;;;16.90;9.97;;;;;;;;;;5018356;28;20231;-83
2022/03/04 01:43:13;;;;;;;16.93;9.23;;;;;;;;;;5016110;28;20211;-83
2022/03/04 01:45:41;;;;;;;14.80;10.57;;;;;;;;;;5020055;28;20243;-83
2022/03/04 01:48:09;;;;;;;15.37;9.97;;;;;;;;;;5019145;28;20599;-83
2022/03/04 01:50:36;;;;;;;18.17;10.00;;;;;;;;;;5023546;28;20357;-83
2022/03/04 01:53:03;;;;;;;15.23;10.30;;;;;;;;;;5018638;28;20306;-83
2022/03/04 01:55:30;;;;;;;13.00;9.80;;;;;;;;;;5019513;28;20227;-83
2022/03/04 01:57:58;;;;;;;16.07;9.80;;;;;;;;;;5019146;28;20238;-83
2022/03/04 02:00:25;;;;;;;12.13;8.80;;;;;;;;;;5015861;28;20235;-83
2022/03/04 02:02:57;;;;;;;17.10;10.60;;;;;;;;;;5015599;28;20219;-83
2022/03/04 02:05:26;;;;;;;15.93;10.50;;;;;;;;;;5017478;28;20236;-83
2022/03/04 02:07:54;;;;;;;16.93;9.83;;;;;;;;;;5018509;28;20271;-84
2022/03/04 02:10:21;;;;;;;16.33;9.97;;;;;;;;;;5016384;28;20235;-83
2022/03/04 02:12:48;;;;;;;19.17;9.43;;;;;;;;;;5020143;28;20200;-83
2022/03/04 02:15:15;;;;;;;12.97;9.40;;;;;;;;;;5018414;28;20249;-84
2022/03/04 02:17:42;;;;;;;16.90;9.33;;;;;;;;;;5016636;28;20231;-83
2022/03/04 02:20:10;;;;;;;14.43;9.13;;;;;;;;;;5016047;28;20845;-83
2022/03/04 02:22:38;;;;;;;14.20;9.90;;;;;;;;;;5018966;28;20203;-83
2022/03/04 02:25:06;;;;;;;13.10;9.33;;;;;;;;;;4998087;28;20212;-83
2022/03/04 02:27:33;;;;;;;13.57;9.20;;;;;;;;;;4999224;28;20672;-84
2022/03/04 02:30:00;;;;;;;12.87;9.10;;;;;;;;;;5009590;28;20200;-83
2022/03/04 02:32:27;;;;;;;12.93;9.23;;;;;;;;;;5017208;28;20207;-84
2022/03/04 02:34:55;;;;;;;17.93;10.10;;;;;;;;;;5017824;28;20199;-82
2022/03/04 02:37:22;;;;;;;19.70;10.00;;;;;;;;;;5020035;28;20220;-83
2022/03/04 02:39:51;;;;;;;18.80;10.50;;;;;;;;;;5010921;28;20211;-83
2022/03/04 02:42:18;;;;;;;15.90;10.03;;;;;;;;;;5018036;28;20234;-84
2022/03/04 02:44:45;;;;;;;14.33;9.70;;;;;;;;;;5016821;28;20240;-83
2022/03/04 02:47:12;;;;;;;16.07;10.17;;;;;;;;;;5018962;28;20938;-84
2022/03/04 02:49:39;;;;;;;15.47;10.13;;;;;;;;;;5019222;28;20211;-84
2022/03/04 02:52:06;;;;;;;15.50;9.77;;;;;;;;;;5018042;28;20242;-84
2022/03/04 02:54:34;;;;;;;17.73;10.87;;;;;;;;;;5016687;28;20222;-83
2022/03/04 02:57:02;;;;;;;13.60;10.07;;;;;;;;;;5016957;28;20231;-83
2022/03/04 02:59:29;;;;;;;16.00;10.30;;;;;;;;;;5018554;28;20212;-84
2022/03/04 03:01:56;;;;;;;13.17;10.20;;;;;;;;;;5017688;28;20234;-84
2022/03/04 03:04:23;;;;;;;17.90;11.20;;;;;;;;;;5016976;28;20219;-84
2022/03/04 03:06:52;;;;;;;22.03;10.20;;;;;;;;;;5017413;28;20239;-84
2022/03/04 03:09:19;;;;;;;13.93;10.33;;;;;;;;;;5018103;28;20242;-84
2022/03/04 03:11:46;;;;;;;15.23;10.13;;;;;;;;;;5017045;28;20246;-84
2022/03/04 03:14:14;;;;;;;14.97;10.57;;;;;;;;;;5016738;28;20215;-84
2022/03/04 03:16:41;;;;;;;17.83;11.37;;;;;;;;;;5016572;28;20242;-83
2022/03/04 03:19:09;;;;;;;15.93;11.10;;;;;;;;;;5015014;28;20200;-84
2022/03/04 03:21:36;;;;;;;16.00;10.67;;;;;;;;;;5015089;28;20282;-83
2022/03/04 03:24:03;;;;;;;12.33;9.53;;;;;;;;;;5015025;28;20199;-83
2022/03/04 03:26:30;;;;;;;18.27;10.63;;;;;;;;;;5015616;28;20235;-83
2022/03/04 03:28:57;;;;;;;17.70;10.87;;;;;;;;;;5015929;28;20220;-84
2022/03/04 03:31:26;;;;;;;14.67;9.97;;;;;;;;;;5015863;28;20238;-84
2022/03/04 03:33:53;;;;;;;14.23;9.47;;;;;;;;;;5015649;28;20207;-84
2022/03/04 03:36:21;;;;;;;13.23;10.10;;;;;;;;;;5014694;28;20317;-82
2022/03/04 03:38:48;;;;;;;14.40;9.93;;;;;;;;;;5016554;28;20285;-84
2022/03/04 03:41:15;;;;;;;16.07;9.10;;;;;;;;;;5016025;28;20223;-85
2022/03/04 03:43:43;;;;;;;13.27;9.60;;;;;;;;;;5015850;28;20207;-84
2022/03/04 03:46:10;;;;;;;13.47;9.67;;;;;;;;;;5014500;28;20314;-84
2022/03/04 03:48:40;;;;;;;12.50;9.40;;;;;;;;;;5011908;28;20219;-84
2022/03/04 03:51:07;;;;;;;14.60;10.07;;;;;;;;;;5012434;28;20239;-85
2022/03/04 03:53:34;;;;;;;13.40;9.47;;;;;;;;;;5013140;28;20634;-84
2022/03/04 03:56:01;;;;;;;18.00;10.83;;;;;;;;;;5012095;28;20236;-84
2022/03/04 03:58:28;;;;;;;15.67;10.77;;;;;;;;;;5012662;28;20230;-84
2022/03/04 04:00:56;;;;;;;16.40;9.93;;;;;;;;;;5012543;28;20239;-84
2022/03/04 04:03:23;;;;;;;16.53;10.73;;;;;;;;;;5013030;28;20245;-82
2022/03/04 04:05:51;;;;;;;20.50;11.20;;;;;;;;;;5012166;28;20608;-84
2022/03/04 04:08:18;;;;;;;17.37;11.67;;;;;;;;;;5013005;28;20234;-84
2022/03/04 04:10:45;;;;;;;15.10;11.30;;;;;;;;;;5012345;28;20234;-84
2022/03/04 04:13:12;;;;;;;17.13;11.77;;;;;;;;;;5012617;28;20574;-84
2022/03/04 04:15:39;;;;;;;16.47;11.90;;;;;;;;;;5012522;28;20234;-84
2022/03/04 04:18:06;;;;;;;18.27;10.83;;;;;;;;;;5012568;28;20230;-84
2022/03/04 04:20:35;;;;;;;20.90;11.70;;;;;;;;;;5012544;28;20242;-84
2022/03/04 04:23:03;;;;;;;15.83;11.77;;;;;;;;;;5013862;28;20264;-84
2022/03/04 04:25:30;;;;;;;15.53;10.47;;;;;;;;;;5016709;28;20237;-84
2022/03/04 04:27:57;;;;;;;14.10;10.30;;;;;;;;;;5016818;28;20230;-84
2022/03/04 04:30:24;;;;;;;18.40;10.30;;;;;;;;;;5016175;28;20237;-84
2022/03/04 04:32:52;;;;;;;18.03;10.93;;;;;;;;;;5016434;28;20603;-83
2022/03/04 04:35:19;;;;;;;16.10;11.03;;;;;;;;;;5016250;28;20241;-84
2022/03/04 04:37:46;;;;;;;16.10;10.77;;;;;;;;;;5016778;28;20230;-84
2022/03/04 04:40:14;;;;;;;15.97;10.50;;;;;;;;;;5016318;28;20289;-84
2022/03/04 04:42:41;;;;;;;18.77;11.70;;;;;;;;;;5017955;28;20205;-84
2022/03/04 04:45:09;;;;;;;19.23;10.87;;;;;;;;;;5022783;28;20245;-84
2022/03/04 04:47:36;;;;;;;15.00;11.47;;;;;;;;;;5032891;28;20231;-83
2022/03/04 04:50:04;;;;;;;17.43;11.63;;;;;;;;;;5030300;28;20207;-84
2022/03/04 04:52:31;;;;;;;18.93;11.60;;;;;;;;;;5036830;28;20202;-84
2022/03/04 04:54:58;;;;;;;18.07;11.40;;;;;;;;;;5025101;28;20199;-84
2022/03/04 04:57:26;;;;;;;15.73;11.23;;;;;;;;;;5017410;28;20699;-84
2022/03/04 04:59:53;;;;;;;19.13;10.67;;;;;;;;;;5019404;28;20210;-84
2022/03/04 05:02:20;;;;;;;19.17;11.60;;;;;;;;;;5018467;28;20211;-83
2022/03/04 05:04:48;;;;;;;16.07;11.47;;;;;;;;;;5017262;28;20203;-84
2022/03/04 05:07:15;;;;;;;17.30;11.20;;;;;;;;;;5016356;28;20330;-84
2022/03/04 05:09:42;;;;;;;16.83;11.23;;;;;;;;;;5017217;28;20235;-83
2022/03/04 05:12:10;;;;;;;17.70;12.47;;;;;;;;;;5022243;28;20242;-83
2022/03/04 05:14:38;;;;;;;24.43;11.70;;;;;;;;;;5019146;28;20310;-83
2022/03/04 05:17:06;;;;;;;19.60;12.67;;;;;;;;;;5022625;28;20238;-83
2022/03/04 05:19:33;;;;;;;18.70;11.73;;;;;;;;;;5027513;28;20204;-83
2022/03/04 05:22:00;;;;;;;22.47;12.67;;;;;;;;;;5031830;28;20213;-83
2022/03/04 05:24:27;;;;;;;18.90;11.93;;;;;;;;;;5040694;28;20192;-83
2022/03/04 05:26:54;;;;;;;18.73;10.90;;;;;;;;;;5037768;28;20640;-83
2022/03/04 05:29:21;;;;;;;19.83;12.17;;;;;;;;;;5034429;28;20234;-83
2022/03/04 05:31:50;;;;;;;18.67;12.07;;;;;;;;;;5032920;28;20249;-83
2022/03/04 05:34:17;;;;;;;20.20;12.90;;;;;;;;;;5027903;28;20195;-83
2022/03/04 05:36:44;;;;;;;20.27;11.93;;;;;;;;;;5027548;28;20294;-84
2022/03/04 05:39:11;;;;;;;23.77;13.13;;;;;;;;;;5029825;28;20238;-82
2022/03/04 05:41:38;;;;;;;22.77;14.00;;;;;;;;;;5039451;28;20231;-83
2022/03/04 05:44:05;;;;;;;22.97;13.30;;;;;;;;;;5030429;28;20206;-83
2022/03/04 05:46:33;;;;;;;19.47;12.93;;;;;;;;;;5027240;28;20247;-82
2022/03/04 05:49:03;;;;;;;18.43;12.83;;;;;;;;;;5023063;28;20231;-83
2022/03/04 05:51:30;;;;;;;22.07;11.83;;;;;;;;;;5029864;28;20228;-82
2022/03/04 05:53:57;;;;;;;22.17;12.73;;;;;;;;;;5027076;28;20203;-82
2022/03/04 05:56:24;;;;;;;22.00;11.97;;;;;;;;;;5014001;28;20285;-83
2022/03/04 05:58:52;;;;;;;17.43;11.93;;;;;;;;;;5013741;28;20708;-82
2022/03/04 06:01:19;;;;;;;21.17;12.60;;;;;;;;;;5014256;28;20227;-83
2022/03/04 06:03:46;;;;;;;18.93;11.20;;;;;;;;;;5030625;28;20219;-82
2022/03/04 06:06:15;;;;;;;17.20;10.97;;;;;;;;;;5016690;28;20242;-82
2022/03/04 06:08:42;;;;;;;17.57;11.80;;;;;;;;;;5015189;28;20241;-83
2022/03/04 06:11:09;;;;;;;16.67;11.10;;;;;;;;;;5015181;28;20231;-82
2022/03/04 06:13:36;;;;;;;17.03;11.33;;;;;;;;;;5015436;28;20214;-82
2022/03/04 06:16:04;;;;;;;19.17;12.00;;;;;;;;;;5014555;28;20249;-82
2022/03/04 06:18:31;;;;;;;17.13;11.50;;;;;;;;;;5015513;28;20226;-82
2022/03/04 06:20:58;;;;;;;22.10;12.63;;;;;;;;;;5015145;28;20700;-82
2022/03/04 06:23:26;;;;;;;22.00;12.50;;;;;;;;;;5015193;28;20681;-82
2022/03/04 06:25:55;;;;;;;19.80;12.77;;;;;;;;;;5014846;28;20237;-82
2022/03/04 06:28:22;;;;;;;24.07;13.30;;;;;;;;;;5015297;28;20242;-83
2022/03/04 06:30:49;;;;;;;18.77;12.93;;;;;;;;;;5015481;28;20242;-83
2022/03/04 06:33:32;;;;;;;22.13;13.07;;;;;;;;;;5009304;28;20214;-82
2022/03/04 06:36:00;;;;;;;18.87;12.23;;;;;;;;;;5009209;28;20323;-82
2022/03/04 06:38:29;;;;;;;26.23;14.10;;;;;;;;;;5016801;28;20223;-83
2022/03/04 06:40:56;;;;;;;20.70;12.43;;;;;;;;;;5015979;28;20246;-82
2022/03/04 06:43:23;;;;;;;22.77;13.27;;;;;;;;;;5016235;28;20205;-83
2022/03/04 06:45:50;;;;;;;22.80;13.03;;;;;;;;;;5016162;28;20246;-82
2022/03/04 06:48:18;;;;;;;20.73;13.60;;;;;;;;;;5016413;28;20233;-83
2022/03/04 06:50:46;;;;;;;26.20;15.03;;;;;;;;;;5015875;28;20269;-83
2022/03/04 06:53:13;;;;;;;27.13;16.40;;;;;;;;;;5016946;28;20215;-83
2022/03/04 06:55:42;;;;;;;29.97;15.77;;;;;;;;;;5016661;28;20261;-82
2022/03/04 06:58:09;;;;;;;26.10;15.63;;;;;;;;;;5015898;28;20715;-81
2022/03/04 07:00:37;;;;;;;27.47;18.23;;;;;;;;;;5015576;28;20234;-82
2022/03/04 07:03:04;;;;;;;25.67;15.50;;;;;;;;;;5017163;28;20682;-82
2022/03/04 07:05:31;;;;;;;32.27;17.60;;;;;;;;;;5017437;28;20241;-82
2022/03/04 07:07:58;;;;;;;29.80;16.80;;;;;;;;;;5017574;28;20240;-82
2022/03/04 07:10:25;;;;;;;31.37;18.30;;;;;;;;;;5016687;28;20724;-82
2022/03/04 07:12:54;;;;;;;29.57;18.10;;;;;;;;;;5018544;28;20214;-82
2022/03/04 07:15:21;;;;;;;34.30;18.63;;;;;;;;;;5020304;28;20258;-82
2022/03/04 07:17:48;;;;;;;32.90;18.47;;;;;;;;;;5024683;28;20230;-82
2022/03/04 07:20:16;;;;;;;28.67;16.87;;;;;;;;;;5033097;28;20227;-82
2022/03/04 07:22:43;;;;;;;33.07;19.70;;;;;;;;;;5015719;28;20219;-82
2022/03/04 07:25:11;;;;;;;32.77;18.37;;;;;;;;;;5020738;28;20234;-82
2022/03/04 07:27:38;;;;;;;35.27;20.70;;;;;;;;;;5037835;28;20269;-82
2022/03/04 07:30:08;;;;;;;38.03;21.43;;;;;;;;;;5037401;28;20203;-83
2022/03/04 07:32:35;;;;;;;33.67;20.37;;;;;;;;;;5036721;28;20206;-82
2022/03/04 07:35:02;;;;;;;35.40;20.43;;;;;;;;;;5036174;28;20202;-81
2022/03/04 07:37:30;;;;;;;36.13;21.10;;;;;;;;;;5036773;28;20229;-82
2022/03/04 07:39:57;;;;;;;40.27;21.77;;;;;;;;;;5036912;28;20211;-83
2022/03/04 07:42:24;;;;;;;39.77;23.27;;;;;;;;;;5034545;28;20202;-84
2022/03/04 07:44:51;;;;;;;35.77;21.37;;;;;;;;;;5034138;28;20187;-83
2022/03/04 07:47:20;;;;;;;36.20;21.20;;;;;;;;;;5034004;28;20237;-84
2022/03/04 07:49:47;;;;;;;39.93;21.63;;;;;;;;;;5033154;28;20324;-84
2022/03/04 07:52:14;;;;;;;33.30;22.10;;;;;;;;;;5032222;28;20245;-84
2022/03/04 07:54:43;;;;;;;39.33;21.40;;;;;;;;;;5032966;28;20223;-83
2022/03/04 07:57:10;;;;;;;37.00;22.27;;;;;;;;;;5032172;28;20238;-83
2022/03/04 07:59:37;;;;;;;41.33;23.53;;;;;;;;;;5021920;28;20215;-84
2022/03/04 08:02:05;;;;;;;36.63;22.40;;;;;;;;;;5012747;28;20703;-84
2022/03/04 08:04:33;;;;;;;38.20;22.23;;;;;;;;;;5013190;28;20665;-84
2022/03/04 08:07:00;;;;;;;36.43;21.70;;;;;;;;;;5012940;28;20237;-84
2022/03/04 08:09:29;;;;;;;42.57;23.40;;;;;;;;;;5007261;28;20695;-84
2022/03/04 08:11:56;;;;;;;43.17;24.37;;;;;;;;;;5011338;28;20235;-84
2022/03/04 08:14:23;;;;;;;40.20;22.60;;;;;;;;;;5018267;28;20199;-83
2022/03/04 08:16:50;;;;;;;38.20;22.03;;;;;;;;;;5016204;28;20231;-82
2022/03/04 08:19:17;;;;;;;37.33;22.87;;;;;;;;;;5032964;28;20214;-83
2022/03/04 08:21:47;;;;;;;45.17;23.70;;;;;;;;;;5025725;28;20232;-83
2022/03/04 08:24:14;;;;;;;43.13;24.47;;;;;;;;;;5014258;28;20211;-83
2022/03/04 08:26:41;;;;;;;43.50;22.93;;;;;;;;;;5013906;28;20239;-84
2022/03/04 08:29:09;;;;;;;41.07;24.70;;;;;;;;;;5014804;28;20223;-82
2022/03/04 08:31:36;;;;;;;46.77;25.63;;;;;;;;;;5029239;28;20231;-83
2022/03/04 08:34:06;;;;;;;45.13;25.97;;;;;;;;;;5029334;28;20207;-83
2022/03/04 08:36:35;;;;;;;43.10;26.13;;;;;;;;;;5012125;28;20261;-83
2022/03/04 08:39:05;;;;;;;47.57;26.47;;;;;;;;;;5012819;28;20226;-82
2022/03/04 08:41:32;;;;;;;42.83;25.90;;;;;;;;;;5012116;28;20227;-83
2022/03/04 08:44:00;;;;;;;43.47;24.80;;;;;;;;;;5012825;28;20207;-83
2022/03/04 08:46:27;;;;;;;47.63;25.33;;;;;;;;;;5024448;28;20230;-83
2022/03/04 08:48:54;;;;;;;39.70;24.77;;;;;;;;;;5032332;28;20228;-83
2022/03/04 08:51:24;;;;;;;42.13;25.47;;;;;;;;;;5034222;28;20257;-83
2022/03/04 08:53:52;;;;;;;43.13;24.70;;;;;;;;;;5017453;28;20203;-82
2022/03/04 08:56:20;;;;;;;42.00;25.30;;;;;;;;;;5017126;28;20764;-83
2022/03/04 08:58:47;;;;;;;39.80;23.97;;;;;;;;;;5035591;28;20221;-83
2022/03/04 09:01:15;;;;;;;36.87;24.20;;;;;;;;;;5033986;28;20600;-83
2022/03/04 09:03:42;;;;;;;40.03;24.53;;;;;;;;;;5031549;28;20213;-83
2022/03/04 09:06:09;;;;;;;42.73;23.30;;;;;;;;;;5031443;28;20236;-84
2022/03/04 09:08:36;;;;;;;40.17;22.73;;;;;;;;;;5016732;28;20233;-85
2022/03/04 09:11:04;;;;;;;41.23;23.13;;;;;;;;;;5015267;28;20229;-85
2022/03/04 09:13:33;;;;;;;34.77;20.87;;;;;;;;;;5038502;28;20202;-84
2022/03/04 09:16:02;;;;;;;38.50;22.50;;;;;;;;;;5035959;28;20707;-85
2022/03/04 09:18:29;;;;;;;38.87;22.27;;;;;;;;;;5035843;28;20261;-85
2022/03/04 09:20:56;;;;;;;39.53;23.50;;;;;;;;;;5034677;28;20241;-84
2022/03/04 09:23:23;;;;;;;32.67;22.03;;;;;;;;;;5034313;28;20204;-84
2022/03/04 09:25:52;;;;;;;36.80;22.03;;;;;;;;;;5025180;28;20245;-84
2022/03/04 09:28:19;;;;;;;45.47;23.63;;;;;;;;;;5014820;28;20269;-84
2022/03/04 09:30:48;;;;;;;41.33;22.87;;;;;;;;;;5022068;28;20245;-82
2022/03/04 09:33:15;;;;;;;38.00;22.90;;;;;;;;;;5034105;28;20206;-84
2022/03/04 09:35:43;;;;;;;37.07;22.87;;;;;;;;;;5034146;28;20603;-84
2022/03/04 09:38:10;;;;;;;39.03;22.43;;;;;;;;;;5034746;28;20230;-84
2022/03/04 09:40:37;;;;;;;34.00;22.03;;;;;;;;;;5033876;28;20235;-83
2022/03/04 09:43:07;;;;;;;38.43;22.53;;;;;;;;;;5034263;28;20217;-84
2022/03/04 09:45:34;;;;;;;35.67;22.23;;;;;;;;;;5033744;28;20627;-85
2022/03/04 09:48:04;;;;;;;37.37;22.10;;;;;;;;;;5033986;28;20537;-84
2022/03/04 09:50:32;;;;;;;39.53;22.03;;;;;;;;;;5033716;28;20329;-84
2022/03/04 09:53:01;;;;;;;38.93;22.90;;;;;;;;;;5016509;28;20235;-83
2022/03/04 09:55:28;;;;;;;37.90;21.37;;;;;;;;;;5013740;28;20778;-84
2022/03/04 09:57:55;;;;;;;35.80;20.17;;;;;;;;;;5014239;28;20224;-84
2022/03/04 10:00:23;;;;;;;33.20;20.13;;;;;;;;;;5014275;28;20717;-85
2022/03/04 10:02:52;;;;;;;34.20;20.03;;;;;;;;;;5019328;28;20694;-83
2022/03/04 10:05:20;;;;;;;36.37;21.07;;;;;;;;;;5017907;28;20240;-83
2022/03/04 10:07:49;;;;;;;34.70;20.07;;;;;;;;;;5032045;28;20227;-83
2022/03/04 10:10:17;;;;;;;33.03;20.00;;;;;;;;;;5017282;28;20233;-83
2022/03/04 10:12:49;;;;;;;40.03;21.33;;;;;;;;;;5016658;28;20215;-85
2022/03/04 10:15:19;;;;;;;35.20;21.47;;;;;;;;;;5014353;28;20234;-84
2022/03/04 10:17:58;;;;;;;32.90;20.27;;;;;;;;;;5015074;28;20628;-84
2022/03/04 10:20:33;;;;;;;34.10;19.77;;;;;;;;;;5061869;23;20235;-84
2022/03/04 10:23:10;;;;;;;34.03;19.63;;;;;;;;;;5051803;28;20196;-85
2022/03/04 10:25:38;;;;;;;32.83;20.50;;;;;;;;;;5054123;28;20227;-85
2022/03/04 10:28:09;;;;;;;33.27;20.43;;;;;;;;;;5054750;28;20233;-86
2022/03/04 10:30:36;;;;;;;32.60;20.50;;;;;;;;;;5055765;28;20308;-84
2022/03/04 10:33:07;;;;;;;33.60;20.33;;;;;;;;;;5055804;28;20206;-84
2022/03/04 10:35:36;;;;;;;30.13;18.50;;;;;;;;;;5055585;28;20261;-87
2022/03/04 10:38:04;;;;;;;31.30;19.37;;;;;;;;;;5056163;28;20205;-84
2022/03/04 10:40:32;;;;;;;29.97;19.20;;;;;;;;;;5054565;28;20233;-85
2022/03/04 10:43:01;;;;;;;30.80;19.33;;;;;;;;;;5051037;28;20297;-84
2022/03/04 10:45:29;;;;;;;30.40;18.80;;;;;;;;;;5053179;28;20222;-84
2022/03/04 10:47:57;;;;;;;29.37;18.73;;;;;;;;;;5053057;28;20194;-85
2022/03/04 10:50:28;;;;;;;30.03;18.53;;;;;;;;;;5054853;28;20237;-84
2022/03/04 10:52:58;;;;;;;32.57;19.27;;;;;;;;;;5055611;28;20247;-84
2022/03/04 10:55:36;;;;;;;28.53;18.07;;;;;;;;;;5051763;28;20230;-85
2022/03/04 10:58:05;;;;;;;28.73;18.67;;;;;;;;;;5054445;28;20202;-85
2022/03/04 11:00:32;;;;;;;29.60;18.70;;;;;;;;;;5053696;28;20586;-84
2022/03/04 11:03:00;;;;;;;27.33;18.23;;;;;;;;;;5033865;28;20274;-84
2022/03/04 11:05:27;;;;;;;30.37;20.70;;;;;;;;;;5033500;28;20229;-85
2022/03/04 11:07:55;;;;;;;29.53;18.97;;;;;;;;;;5048850;28;20564;-85
2022/03/04 11:10:24;;;;;;;27.23;18.43;;;;;;;;;;5052484;28;20638;-84
2022/03/04 11:12:53;;;;;;;29.43;18.67;;;;;;;;;;5052958;28;20206;-85
2022/03/04 11:15:20;;;;;;;30.50;19.73;;;;;;;;;;5051935;28;20247;-85
2022/03/04 11:17:48;;;;;;;30.00;20.03;;;;;;;;;;5058374;28;20209;-85
2022/03/04 11:20:16;;;;;;;28.77;18.97;;;;;;;;;;5075520;28;20272;-85
2022/03/04 11:22:44;;;;;;;30.73;20.93;;;;;;;;;;5076044;28;20202;-85
2022/03/04 11:25:12;;;;;;;32.03;21.00;;;;;;;;;;5075643;28;20285;-85
2022/03/04 11:27:43;;;;;;;30.47;20.63;;;;;;;;;;5058273;28;20825;-85
2022/03/04 11:30:25;;;;;;;29.93;19.50;;;;;;;;;;5054004;28;20238;-85
2022/03/04 11:33:00;;;;;;;31.33;20.57;;;;;;;;;;5053221;28;20210;-85
2022/03/04 11:35:37;;;;;;;33.73;21.00;;;;;;;;;;5053089;28;20225;-85
2022/03/04 11:38:04;;;;;;;31.33;20.57;;;;;;;;;;5053415;28;20210;-85
2022/03/04 11:40:35;;;;;;;27.97;19.27;;;;;;;;;;5052181;28;20249;-85
2022/03/04 11:43:06;;;;;;;30.47;18.87;;;;;;;;;;5052967;28;20569;-85
2022/03/04 11:45:34;;;;;;;26.50;19.83;;;;;;;;;;5051493;28;20717;-85
2022/03/04 11:48:05;;;;;;;32.17;20.90;;;;;;;;;;5052833;28;20263;-84
2022/03/04 11:50:33;;;;;;;32.83;20.67;;;;;;;;;;5051754;28;20234;-85
2022/03/04 11:53:22;;;;;;;30.97;18.87;;;;;;;;;;5052923;28;20805;-85
2022/03/04 11:56:10;;;;;;;27.87;19.07;;;;;;;;;;5045958;28;20234;-85
2022/03/04 11:58:52;;;;;;;25.97;18.97;;;;;;;;;;5055892;28;20197;-85
2022/03/04 12:01:26;;;;;;;29.27;19.03;;;;;;;;;;5052542;28;20625;-86
2022/03/04 12:04:07;;;;;;;27.20;18.80;;;;;;;;;;5052349;28;20193;-86
2022/03/04 12:06:34;;;;;;;23.60;17.23;;;;;;;;;;5052298;28;20237;-86
2022/03/04 12:09:16;;;;;;;28.13;17.90;;;;;;;;;;5051673;28;20624;-86
2022/03/04 12:12:06;;;;;;;28.07;17.90;;;;;;;;;;5051242;28;20242;-87
2022/03/04 12:14:35;;;;;;;29.73;18.73;;;;;;;;;;5051795;28;20208;-86
2022/03/04 12:17:04;;;;;;;26.20;18.33;;;;;;;;;;5051404;28;20260;-86
2022/03/04 12:19:32;;;;;;;30.30;19.30;;;;;;;;;;5051987;28;20253;-86
2022/03/04 12:21:59;;;;;;;27.40;17.20;;;;;;;;;;5051309;28;20229;-86
2022/03/04 12:24:29;;;;;;;25.43;18.50;;;;;;;;;;5051849;28;20198;-86
2022/03/04 12:26:56;;;;;;;27.50;17.77;;;;;;;;;;5051519;28;20241;-87
2022/03/04 12:29:25;;;;;;;24.27;18.13;;;;;;;;;;5051635;28;20232;-87
2022/03/04 12:31:52;;;;;;;27.17;18.43;;;;;;;;;;5052066;28;20603;-87
2022/03/04 12:34:22;;;;;;;25.20;17.30;;;;;;;;;;5052422;28;20201;-87
2022/03/04 12:36:52;;;;;;;27.10;17.80;;;;;;;;;;5052407;28;20238;-87
2022/03/04 12:39:19;;;;;;;27.00;17.60;;;;;;;;;;5053874;28;20274;-86
2022/03/04 12:41:47;;;;;;;25.70;17.60;;;;;;;;;;5051674;28;20225;-86
2022/03/04 12:44:14;;;;;;;26.40;17.50;;;;;;;;;;5053128;28;20206;-86
2022/03/04 12:46:43;;;;;;;26.27;17.27;;;;;;;;;;5055773;28;20233;-86
2022/03/04 12:49:11;;;;;;;24.60;17.30;;;;;;;;;;5055766;28;20244;-86
2022/03/04 12:51:40;;;;;;;23.73;17.27;;;;;;;;;;5035401;28;20913;-86
2022/03/04 12:54:09;;;;;;;25.87;18.03;;;;;;;;;;5035736;28;20199;-86
2022/03/04 12:56:36;;;;;;;28.27;19.27;;;;;;;;;;5035587;28;20296;-86
2022/03/04 12:59:05;;;;;;;40.43;26.37;;;;;;;;;;5035581;28;20570;-86
2022/03/04 13:01:33;;;;;;;28.33;20.00;;;;;;;;;;5035066;28;20238;-86
2022/03/04 13:04:01;;;;;;;23.07;16.13;;;;;;;;;;5036839;28;20202;-86
2022/03/04 13:06:29;;;;;;;24.17;16.83;;;;;;;;;;5036639;28;20234;-86
2022/03/04 13:08:59;;;;;;;23.93;17.17;;;;;;;;;;5036608;28;20227;-86
2022/03/04 13:11:27;;;;;;;22.50;15.77;;;;;;;;;;5036695;28;20231;-86
2022/03/04 13:13:55;;;;;;;82.60;43.83;;;;;;;;;;5036821;28;20195;-86
2022/03/04 13:16:33;;;;;;;26.20;17.77;;;;;;;;;;5049878;28;20643;-86
2022/03/04 13:19:01;;;;;;;20.00;14.57;;;;;;;;;;5058326;28;20193;-86
2022/03/04 13:21:38;;;;;;;20.17;15.37;;;;;;;;;;5058086;28;20228;-86
2022/03/04 13:24:12;;;;;;;20.17;13.70;;;;;;;;;;5059964;28;20202;-86
2022/03/04 13:26:39;;;;;;;18.33;13.13;;;;;;;;;;5058224;28;20886;-87
2022/03/04 13:29:06;;;;;;;19.63;14.37;;;;;;;;;;5056703;28;20736;-86
2022/03/04 13:31:36;;;;;;;20.33;13.33;;;;;;;;;;5056129;28;20237;-86
2022/03/04 13:34:13;;;;;;;18.27;12.37;;;;;;;;;;5056594;28;20210;-86
2022/03/04 13:36:48;;;;;;;19.53;12.13;;;;;;;;;;5057520;28;20234;-86
2022/03/04 13:39:19;;;;;;;16.40;12.90;;;;;;;;;;5057798;28;20404;-87
2022/03/04 13:41:46;;;;;;;21.52;13.40;;;;;;;;;;5055471;28;20245;-86
2022/03/04 13:44:14;;;;;;;20.10;13.85;;;;;;;;;;5057114;28;20198;-88
2022/03/04 13:46:56;;;;;;;27.15;18.45;;;;;;;;;;5058789;28;20233;-86
2022/03/04 13:49:23;;;;;;;20.23;14.35;;;;;;;;;;5065717;28;20556;-87
2022/03/04 13:52:00;;;;;;;18.02;12.45;;;;;;;;;;5055995;28;20234;-88
2022/03/04 13:54:42;;;;;;;21.38;15.15;;;;;;;;;;5057158;28;20193;-88
2022/03/04 13:57:11;;;;;;;22.75;15.75;;;;;;;;;;5057916;28;20234;-89
2022/03/04 13:59:49;;;;;;;23.00;16.02;;;;;;;;;;5063759;28;20218;-91
2022/03/04 14:02:16;;;;;;;17.30;13.35;;;;;;;;;;5062103;28;20309;-88
2022/03/04 14:04:53;;;;;;;18.65;12.75;;;;;;;;;;5051214;28;20690;-88
2022/03/04 14:07:23;;;;;;;19.63;14.05;;;;;;;;;;5041259;28;20215;-89
2022/03/04 14:09:56;;;;;;;20.35;14.45;;;;;;;;;;5023690;28;20231;-87
2022/03/04 14:12:40;;;;;;;21.05;13.80;;;;;;;;;;5014589;28;20227;-88
2022/03/04 14:15:08;;;;;;;18.65;13.65;;;;;;;;;;5040634;28;20198;-88
2022/03/04 14:17:46;;;;;;;17.98;13.43;;;;;;;;;;5044417;28;20199;-89
2022/03/04 14:20:13;;;;;;;17.85;13.00;;;;;;;;;;5043646;28;20230;-89
2022/03/04 14:22:43;;;;;;;16.48;12.48;;;;;;;;;;5047332;28;20217;-90
2022/03/04 14:25:11;;;;;;;17.95;11.60;;;;;;;;;;5047884;28;20227;-88